createdAt,value
2017-11-29T00:00:05.797Z,4.54
2017-11-29T00:01:05.728Z,4.58
2017-11-29T00:02:05.708Z,4.54
2017-11-29T00:03:05.699Z,4.59
2017-11-29T00:04:05.674Z,4.48
2017-11-29T00:05:05.658Z,4.55
2017-11-29T00:06:05.690Z,4.59
2017-11-29T00:07:05.625Z,4.55
2017-11-29T00:08:05.603Z,4.59
2017-11-29T00:09:05.628Z,4.50
2017-11-29T00:10:05.576Z,4.47
2017-11-29T00:11:05.558Z,4.48
2017-11-29T00:12:05.533Z,4.50
2017-11-29T00:13:05.528Z,4.45
2017-11-29T00:14:05.500Z,4.48
2017-11-29T00:15:05.551Z,4.42
2017-11-29T00:16:05.467Z,4.51
2017-11-29T00:17:05.460Z,4.45
2017-11-29T00:18:05.428Z,4.48
2017-11-29T00:19:05.407Z,4.51
2017-11-29T00:20:05.412Z,4.51
2017-11-29T00:21:05.433Z,4.45
2017-11-29T00:22:05.360Z,4.47
2017-11-29T00:23:05.334Z,4.50
2017-11-29T00:24:06.277Z,4.48
2017-11-29T00:25:05.299Z,4.41
2017-11-29T00:26:05.286Z,4.45
2017-11-29T00:27:05.326Z,4.45
2017-11-29T00:28:05.252Z,4.58
2017-11-29T00:29:05.241Z,4.48
2017-11-29T00:30:05.213Z,4.48
2017-11-29T00:31:05.196Z,4.51
2017-11-29T00:32:05.173Z,4.51
2017-11-29T00:33:05.227Z,4.47
2017-11-29T00:34:05.143Z,4.47
2017-11-29T00:35:05.120Z,4.42
2017-11-29T00:36:05.106Z,4.50
2017-11-29T00:37:05.095Z,4.45
2017-11-29T00:38:05.067Z,4.42
2017-11-29T00:39:05.193Z,4.48
2017-11-29T00:40:05.033Z,4.48
2017-11-29T00:41:05.018Z,4.52
2017-11-29T00:42:05.002Z,4.54
2017-11-29T00:43:04.983Z,4.58
2017-11-29T00:44:04.964Z,4.54
2017-11-29T00:45:04.976Z,4.55
2017-11-29T00:46:04.928Z,4.51
2017-11-29T00:47:04.911Z,4.51
2017-11-29T00:48:04.946Z,4.58
2017-11-29T00:49:04.875Z,4.54
2017-11-29T00:50:04.859Z,4.50
2017-11-29T00:51:04.834Z,4.45
2017-11-29T00:52:04.818Z,4.52
2017-11-29T00:53:04.799Z,4.51
2017-11-29T00:54:04.850Z,4.54
2017-11-29T00:55:04.764Z,4.50
2017-11-29T00:56:04.748Z,4.47
2017-11-29T00:57:04.734Z,4.48
2017-11-29T00:58:04.722Z,4.48
2017-11-29T00:59:04.696Z,4.48
2017-11-29T01:00:04.816Z,4.59
2017-11-29T01:01:04.658Z,4.54
2017-11-29T01:02:04.645Z,4.55
2017-11-29T01:03:04.627Z,4.58
2017-11-29T01:04:04.604Z,4.55
2017-11-29T01:05:04.586Z,4.54
2017-11-29T01:06:04.631Z,4.65
2017-11-29T01:07:04.558Z,4.54
2017-11-29T01:08:04.535Z,4.48
2017-11-29T01:09:04.520Z,4.54
2017-11-29T01:10:04.508Z,4.51
2017-11-29T01:11:04.482Z,4.48
2017-11-29T01:12:04.527Z,4.47
2017-11-29T01:13:04.445Z,4.58
2017-11-29T01:14:04.435Z,4.54
2017-11-29T01:15:04.420Z,4.54
2017-11-29T01:16:04.395Z,4.50
2017-11-29T01:17:04.382Z,4.54
2017-11-29T01:18:04.413Z,4.54
2017-11-29T01:19:04.338Z,4.50
2017-11-29T01:20:04.341Z,4.51
2017-11-29T01:21:04.310Z,4.50
2017-11-29T01:22:04.298Z,4.55
2017-11-29T01:23:04.269Z,4.51
2017-11-29T01:24:04.347Z,4.52
2017-11-29T01:25:04.240Z,4.41
2017-11-29T01:26:04.219Z,4.51
2017-11-29T01:27:04.196Z,4.44
2017-11-29T01:28:04.183Z,4.41
2017-11-29T01:29:04.172Z,4.50
2017-11-29T01:30:04.181Z,4.51
2017-11-29T01:31:04.120Z,4.42
2017-11-29T01:32:04.099Z,4.42
2017-11-29T01:33:04.101Z,4.37
2017-11-29T01:34:04.072Z,4.45
2017-11-29T01:35:04.079Z,4.47
2017-11-29T01:36:04.042Z,4.40
2017-11-29T01:37:04.064Z,4.45
2017-11-29T01:38:03.996Z,4.37
2017-11-29T01:39:03.992Z,4.44
2017-11-29T01:40:04.018Z,4.36
2017-11-29T01:41:03.950Z,4.40
2017-11-29T01:42:03.926Z,4.40
2017-11-29T01:43:03.907Z,4.37
2017-11-29T01:44:03.893Z,4.36
2017-11-29T01:45:03.869Z,4.41
2017-11-29T01:46:03.923Z,4.40
2017-11-29T01:47:03.834Z,4.36
2017-11-29T01:48:03.831Z,4.41
2017-11-29T01:49:03.820Z,4.34
2017-11-29T01:50:03.793Z,4.42
2017-11-29T01:51:03.775Z,4.37
2017-11-29T01:52:03.812Z,4.36
2017-11-29T01:53:03.757Z,4.41
2017-11-29T01:54:03.720Z,4.37
2017-11-29T01:55:03.691Z,4.34
2017-11-29T01:56:03.686Z,4.36
2017-11-29T01:57:03.658Z,4.30
2017-11-29T01:58:03.776Z,4.36
2017-11-29T01:59:03.629Z,4.32
2017-11-29T02:00:03.617Z,4.36
2017-11-29T02:01:03.582Z,4.34
2017-11-29T02:02:03.565Z,4.34
2017-11-29T02:03:03.582Z,4.36
2017-11-29T02:04:03.561Z,4.34
2017-11-29T02:05:03.525Z,4.40
2017-11-29T02:06:03.502Z,4.30
2017-11-29T02:07:03.619Z,4.36
2017-11-29T02:08:03.479Z,4.33
2017-11-29T02:09:03.443Z,4.36
2017-11-29T02:10:03.432Z,4.36
2017-11-29T02:11:03.407Z,4.30
2017-11-29T02:12:03.411Z,4.30
2017-11-29T02:13:03.430Z,4.41
2017-11-29T02:14:03.354Z,4.36
2017-11-29T02:15:03.332Z,4.32
2017-11-29T02:16:03.326Z,4.37
2017-11-29T02:17:03.310Z,4.41
2017-11-29T02:18:03.298Z,4.37
2017-11-29T02:19:03.332Z,4.34
2017-11-29T02:20:03.257Z,4.36
2017-11-29T02:21:03.236Z,4.34
2017-11-29T02:22:03.213Z,4.30
2017-11-29T02:23:03.191Z,4.29
2017-11-29T02:24:03.180Z,4.26
2017-11-29T02:25:03.218Z,4.22
2017-11-29T02:26:03.152Z,4.29
2017-11-29T02:27:03.142Z,4.27
2017-11-29T02:28:03.112Z,4.30
2017-11-29T02:29:03.083Z,4.36
2017-11-29T02:30:03.064Z,4.36
2017-11-29T02:31:03.097Z,4.37
2017-11-29T02:32:03.029Z,4.27
2017-11-29T02:33:03.011Z,4.32
2017-11-29T02:34:03.141Z,4.27
2017-11-29T02:35:02.994Z,4.22
2017-11-29T02:36:02.955Z,4.30
2017-11-29T02:37:02.939Z,4.26
2017-11-29T02:38:02.941Z,4.16
2017-11-29T02:39:02.915Z,4.22
2017-11-29T02:40:02.961Z,4.14
2017-11-29T02:41:02.876Z,4.12
2017-11-29T02:42:02.853Z,4.23
2017-11-29T02:43:02.837Z,4.12
2017-11-29T02:44:02.832Z,4.15
2017-11-29T02:45:02.806Z,4.12
2017-11-29T02:46:02.839Z,4.14
2017-11-29T02:47:02.765Z,4.14
2017-11-29T02:48:02.742Z,4.20
2017-11-29T02:49:02.727Z,4.15
2017-11-29T02:50:02.719Z,4.22
2017-11-29T02:51:02.709Z,4.15
2017-11-29T02:52:02.734Z,4.18
2017-11-29T02:53:02.656Z,4.20
2017-11-29T02:54:02.651Z,4.12
2017-11-29T02:55:02.619Z,4.12
2017-11-29T02:56:02.608Z,4.18
2017-11-29T02:57:02.593Z,4.15
2017-11-29T02:58:02.617Z,4.27
2017-11-29T02:59:02.553Z,4.14
2017-11-29T03:00:02.541Z,4.15
2017-11-29T03:01:02.521Z,4.15
2017-11-29T03:02:02.506Z,4.26
2017-11-29T03:03:02.517Z,4.29
2017-11-29T03:04:02.605Z,4.27
2017-11-29T03:05:02.445Z,4.29
2017-11-29T03:06:02.434Z,4.29
2017-11-29T03:07:02.400Z,4.29
2017-11-29T03:08:02.393Z,4.27
2017-11-29T03:09:02.372Z,4.36
2017-11-29T03:10:02.406Z,4.26
2017-11-29T03:11:02.330Z,4.27
2017-11-29T03:12:02.325Z,4.29
2017-11-29T03:13:02.312Z,4.20
2017-11-29T03:14:02.286Z,4.26
2017-11-29T03:15:02.274Z,4.20
2017-11-29T03:16:02.279Z,4.27
2017-11-29T03:17:02.234Z,4.27
2017-11-29T03:18:02.203Z,4.26
2017-11-29T03:19:02.335Z,4.18
2017-11-29T03:20:02.183Z,4.23
2017-11-29T03:21:02.162Z,4.27
2017-11-29T03:22:02.145Z,4.20
2017-11-29T03:23:02.113Z,4.29
2017-11-29T03:24:02.102Z,4.18
2017-11-29T03:25:02.233Z,4.32
2017-11-29T03:26:02.059Z,4.20
2017-11-29T03:27:02.042Z,4.23
2017-11-29T03:28:02.032Z,4.20
2017-11-29T03:29:02.010Z,4.18
2017-11-29T03:30:01.996Z,4.26
2017-11-29T03:31:02.029Z,4.16
2017-11-29T03:32:01.948Z,4.26
2017-11-29T03:33:02.131Z,4.16
2017-11-29T03:34:01.932Z,4.33
2017-11-29T03:35:01.917Z,4.24
2017-11-29T03:36:01.945Z,4.22
2017-11-29T03:37:01.871Z,4.22
2017-11-29T03:38:01.863Z,4.22
2017-11-29T03:39:01.843Z,4.12
2017-11-29T03:40:01.823Z,4.26
2017-11-29T03:41:01.800Z,4.11
2017-11-29T03:42:01.842Z,4.23
2017-11-29T03:43:01.766Z,4.18
2017-11-29T03:44:01.748Z,4.20
2017-11-29T03:45:01.724Z,4.20
2017-11-29T03:46:01.701Z,4.20
2017-11-29T03:47:01.699Z,4.09
2017-11-29T03:48:01.703Z,4.11
2017-11-29T03:49:01.647Z,4.12
2017-11-29T03:50:01.661Z,4.15
2017-11-29T03:51:01.622Z,4.09
2017-11-29T03:52:01.605Z,4.09
2017-11-29T03:53:01.585Z,4.05
2017-11-29T03:54:01.567Z,4.05
2017-11-29T03:55:01.682Z,4.12
2017-11-29T03:56:01.524Z,4.04
2017-11-29T03:57:01.506Z,4.09
2017-11-29T03:58:01.498Z,4.05
2017-11-29T03:59:01.481Z,4.08
2017-11-29T04:00:01.454Z,4.05
2017-11-29T04:01:01.575Z,4.09
2017-11-29T04:02:01.421Z,4.05
2017-11-29T04:03:01.426Z,4.02
2017-11-29T04:04:01.382Z,4.02
2017-11-29T04:05:01.367Z,4.08
2017-11-29T04:06:01.344Z,4.05
2017-11-29T04:07:01.475Z,4.06
2017-11-29T04:08:01.308Z,4.08
2017-11-29T04:09:01.289Z,3.97
2017-11-29T04:10:01.269Z,4.11
2017-11-29T04:11:01.255Z,4.11
2017-11-29T04:12:01.242Z,4.12
2017-11-29T04:13:01.281Z,4.12
2017-11-29T04:14:01.206Z,4.18
2017-11-29T04:15:01.177Z,4.20
2017-11-29T04:16:01.162Z,4.15
2017-11-29T04:17:01.167Z,4.24
2017-11-29T04:18:01.134Z,4.15
2017-11-29T04:19:01.150Z,4.09
2017-11-29T04:20:01.088Z,4.12
2017-11-29T04:21:01.089Z,4.16
2017-11-29T04:22:01.054Z,4.09
2017-11-29T04:23:01.058Z,4.11
2017-11-29T04:24:01.076Z,4.02
2017-11-29T04:25:01.020Z,4.11
2017-11-29T04:26:00.991Z,4.04
2017-11-29T04:27:00.984Z,4.11
2017-11-29T04:28:00.945Z,4.11
2017-11-29T04:29:00.929Z,4.09
2017-11-29T04:30:01.049Z,4.14
2017-11-29T04:31:00.891Z,4.08
2017-11-29T04:32:00.871Z,4.09
2017-11-29T04:33:00.861Z,4.09
2017-11-29T04:34:00.846Z,4.08
2017-11-29T04:35:00.828Z,4.09
2017-11-29T04:36:00.886Z,4.11
2017-11-29T04:37:00.795Z,4.02
2017-11-29T04:38:00.762Z,4.06
2017-11-29T04:39:00.752Z,4.11
2017-11-29T04:40:00.741Z,4.05
2017-11-29T04:41:00.720Z,4.06
2017-11-29T04:42:00.735Z,3.98
2017-11-29T04:43:00.688Z,4.08
2017-11-29T04:44:00.670Z,4.05
2017-11-29T04:45:00.643Z,4.12
2017-11-29T04:46:00.621Z,4.20
2017-11-29T04:47:00.637Z,4.11
2017-11-29T04:48:00.582Z,4.12
2017-11-29T04:49:00.566Z,4.08
2017-11-29T04:50:00.689Z,4.11
2017-11-29T04:51:00.537Z,4.09
2017-11-29T04:52:00.509Z,4.09
2017-11-29T04:53:00.495Z,4.09
2017-11-29T04:54:00.490Z,4.02
2017-11-29T04:55:00.476Z,4.04
2017-11-29T04:56:00.485Z,4.04
2017-11-29T04:57:00.439Z,4.12
2017-11-29T04:58:00.411Z,4.06
2017-11-29T04:59:00.390Z,4.05
2017-11-29T05:00:00.374Z,4.06
2017-11-29T05:01:00.377Z,4.11
2017-11-29T05:02:00.401Z,4.09
2017-11-29T05:03:00.317Z,4.04
2017-11-29T05:04:00.294Z,4.09
2017-11-29T05:05:00.292Z,4.02
2017-11-29T05:06:00.271Z,4.04
2017-11-29T05:07:00.253Z,4.06
2017-11-29T05:08:00.263Z,4.06
2017-11-29T05:09:00.342Z,4.06
2017-11-29T05:10:00.199Z,4.06
2017-11-29T05:11:00.184Z,4.08
2017-11-29T05:12:00.165Z,4.08
2017-11-29T05:13:00.144Z,4.02
2017-11-29T05:14:00.129Z,4.05
2017-11-29T05:15:00.127Z,4.08
2017-11-29T05:16:00.081Z,4.09
2017-11-29T05:17:00.200Z,4.09
2017-11-29T05:18:00.048Z,4.06
2017-11-29T05:19:00.040Z,4.06
2017-11-29T05:20:00.010Z,4.04
2017-11-29T05:21:00.000Z,4.02
2017-11-29T05:21:59.986Z,4.08
2017-11-29T05:23:00.026Z,4.11
2017-11-29T05:23:59.937Z,4.08
2017-11-29T05:24:59.922Z,4.11
2017-11-29T05:25:59.920Z,4.09
2017-11-29T05:26:59.883Z,4.14
2017-11-29T05:27:59.865Z,4.06
2017-11-29T05:28:59.871Z,4.06
2017-11-29T05:29:59.848Z,4.05
2017-11-29T05:30:59.814Z,4.09
2017-11-29T05:31:59.793Z,4.08
2017-11-29T05:32:59.769Z,4.06
2017-11-29T05:33:59.805Z,4.09
2017-11-29T05:34:59.754Z,3.98
2017-11-29T05:35:59.720Z,4.09
2017-11-29T05:36:59.703Z,4.02
2017-11-29T05:37:59.693Z,4.06
2017-11-29T05:38:59.679Z,4.05
2017-11-29T05:39:59.784Z,4.04
2017-11-29T05:40:59.640Z,4.02
2017-11-29T05:41:59.619Z,3.97
2017-11-29T05:42:59.602Z,3.93
2017-11-29T05:43:59.574Z,3.94
2017-11-29T05:44:59.565Z,3.83
2017-11-29T05:45:59.603Z,3.90
2017-11-29T05:46:59.525Z,3.90
2017-11-29T05:47:59.508Z,3.93
2017-11-29T05:48:59.493Z,3.98
2017-11-29T05:49:59.494Z,3.90
2017-11-29T05:50:59.460Z,3.80
2017-11-29T05:51:59.472Z,3.79
2017-11-29T05:52:59.475Z,3.78
2017-11-29T05:53:59.394Z,3.88
2017-11-29T05:54:59.395Z,3.90
2017-11-29T05:55:59.364Z,3.88
2017-11-29T05:56:59.346Z,3.88
2017-11-29T05:57:59.331Z,3.91
2017-11-29T05:58:59.372Z,3.91
2017-11-29T05:59:59.289Z,3.90
2017-11-29T06:00:59.281Z,3.88
2017-11-29T06:01:59.260Z,3.91
2017-11-29T06:02:59.249Z,3.84
2017-11-29T06:03:59.233Z,3.84
2017-11-29T06:04:59.261Z,3.84
2017-11-29T06:05:59.181Z,3.88
2017-11-29T06:06:59.167Z,3.83
2017-11-29T06:07:59.155Z,3.86
2017-11-29T06:08:59.130Z,3.88
2017-11-29T06:09:59.120Z,3.88
2017-11-29T06:10:59.118Z,3.90
2017-11-29T06:11:59.067Z,3.80
2017-11-29T06:12:59.062Z,3.84
2017-11-29T06:13:59.057Z,3.78
2017-11-29T06:14:59.032Z,3.79
2017-11-29T06:15:59.077Z,3.72
2017-11-29T06:16:58.977Z,3.75
2017-11-29T06:17:58.976Z,3.75
2017-11-29T06:18:58.947Z,3.73
2017-11-29T06:19:58.932Z,3.75
2017-11-29T06:20:58.921Z,3.73
2017-11-29T06:21:58.958Z,3.83
2017-11-29T06:22:58.886Z,3.79
2017-11-29T06:23:58.863Z,3.79
2017-11-29T06:24:58.844Z,3.72
2017-11-29T06:25:58.841Z,3.79
2017-11-29T06:26:58.810Z,3.68
2017-11-29T06:27:58.815Z,3.76
2017-11-29T06:28:58.760Z,3.73
2017-11-29T06:29:58.758Z,3.66
2017-11-29T06:30:58.743Z,3.80
2017-11-29T06:31:58.724Z,3.79
2017-11-29T06:32:58.702Z,3.70
2017-11-29T06:33:58.712Z,3.66
2017-11-29T06:34:58.668Z,3.66
2017-11-29T06:35:58.632Z,3.70
2017-11-29T06:36:58.618Z,3.72
2017-11-29T06:37:58.749Z,3.65
2017-11-29T06:38:58.586Z,3.62
2017-11-29T06:39:58.561Z,3.61
2017-11-29T06:40:58.553Z,3.65
2017-11-29T06:41:58.550Z,3.69
2017-11-29T06:42:58.510Z,3.69
2017-11-29T06:43:58.552Z,3.66
2017-11-29T06:44:58.481Z,3.66
2017-11-29T06:45:58.469Z,3.72
2017-11-29T06:46:58.449Z,3.65
2017-11-29T06:47:58.428Z,3.69
2017-11-29T06:48:58.411Z,3.57
2017-11-29T06:49:58.421Z,3.55
2017-11-29T06:50:58.376Z,3.65
2017-11-29T06:51:58.354Z,3.69
2017-11-29T06:52:58.472Z,3.68
2017-11-29T06:53:58.324Z,3.69
2017-11-29T06:54:58.294Z,3.66
2017-11-29T06:55:58.284Z,3.55
2017-11-29T06:56:58.261Z,3.62
2017-11-29T06:57:58.254Z,3.62
2017-11-29T06:58:59.302Z,3.57
2017-11-29T06:59:58.205Z,3.54
2017-11-29T07:00:58.193Z,3.65
2017-11-29T07:01:58.178Z,3.68
2017-11-29T07:02:58.162Z,3.54
2017-11-29T07:03:58.290Z,3.65
2017-11-29T07:04:58.107Z,3.66
2017-11-29T07:05:58.124Z,3.61
2017-11-29T07:06:58.068Z,3.66
2017-11-29T07:07:58.049Z,3.66
2017-11-29T07:08:58.052Z,3.57
2017-11-29T07:09:58.042Z,3.54
2017-11-29T07:10:58.007Z,3.66
2017-11-29T07:11:57.987Z,3.54
2017-11-29T07:12:57.962Z,3.61
2017-11-29T07:13:57.948Z,3.66
2017-11-29T07:14:57.975Z,3.68
2017-11-29T07:15:57.922Z,3.68
2017-11-29T07:16:57.894Z,3.69
2017-11-29T07:17:57.877Z,3.68
2017-11-29T07:18:57.849Z,3.65
2017-11-29T07:19:57.899Z,3.70
2017-11-29T07:20:57.829Z,3.69
2017-11-29T07:21:57.793Z,3.55
2017-11-29T07:22:57.796Z,3.62
2017-11-29T07:23:57.772Z,3.70
2017-11-29T07:24:57.746Z,3.62
2017-11-29T07:25:57.792Z,3.61
2017-11-29T07:26:57.709Z,3.70
2017-11-29T07:27:57.700Z,3.68
2017-11-29T07:28:57.669Z,3.70
2017-11-29T07:29:57.658Z,3.80
2017-11-29T07:30:57.651Z,3.73
2017-11-29T07:31:57.655Z,3.75
2017-11-29T07:32:57.615Z,3.65
2017-11-29T07:33:57.589Z,3.61
2017-11-29T07:34:57.626Z,3.75
2017-11-29T07:35:57.554Z,3.69
2017-11-29T07:36:57.524Z,3.69
2017-11-29T07:37:57.520Z,3.70
2017-11-29T07:38:57.519Z,3.76
2017-11-29T07:39:57.481Z,3.66
2017-11-29T07:40:57.601Z,3.70
2017-11-29T07:41:57.443Z,3.65
2017-11-29T07:42:57.432Z,3.65
2017-11-29T07:43:57.394Z,3.68
2017-11-29T07:44:57.387Z,3.68
2017-11-29T07:45:57.358Z,3.62
2017-11-29T07:46:57.484Z,3.80
2017-11-29T07:47:57.336Z,3.66
2017-11-29T07:48:57.313Z,3.76
2017-11-29T07:49:57.287Z,3.73
2017-11-29T07:50:57.267Z,3.73
2017-11-29T07:51:57.261Z,3.73
2017-11-29T07:52:57.298Z,3.80
2017-11-29T07:53:57.227Z,3.78
2017-11-29T07:54:57.197Z,3.78
2017-11-29T07:55:57.174Z,3.76
2017-11-29T07:56:57.171Z,3.76
2017-11-29T07:57:57.161Z,3.87
2017-11-29T07:58:57.182Z,3.80
2017-11-29T07:59:57.101Z,3.87
2017-11-29T08:00:57.092Z,3.87
2017-11-29T08:01:57.082Z,3.87
2017-11-29T08:02:57.055Z,3.83
2017-11-29T08:03:57.029Z,3.80
2017-11-29T08:04:57.081Z,3.73
2017-11-29T08:05:57.004Z,3.73
2017-11-29T08:06:56.992Z,3.83
2017-11-29T08:07:56.958Z,3.78
2017-11-29T08:08:56.948Z,3.72
2017-11-29T08:09:56.959Z,3.75
2017-11-29T08:10:56.947Z,3.76
2017-11-29T08:11:56.903Z,3.76
2017-11-29T08:12:56.883Z,3.70
2017-11-29T08:13:56.867Z,3.70
2017-11-29T08:14:56.836Z,3.80
2017-11-29T08:15:56.958Z,3.76
2017-11-29T08:16:56.817Z,3.70
2017-11-29T08:17:56.789Z,3.80
2017-11-29T08:18:56.772Z,3.66
2017-11-29T08:19:56.756Z,3.72
2017-11-29T08:20:56.724Z,3.66
2017-11-29T08:21:56.735Z,3.70
2017-11-29T08:22:56.690Z,3.79
2017-11-29T08:23:56.680Z,3.72
2017-11-29T08:24:56.784Z,3.83
2017-11-29T08:25:56.642Z,3.66
2017-11-29T08:26:56.617Z,3.78
2017-11-29T08:27:56.597Z,3.76
2017-11-29T08:28:56.584Z,3.83
2017-11-29T08:29:56.571Z,3.79
2017-11-29T08:30:56.584Z,3.75
2017-11-29T08:31:56.536Z,3.75
2017-11-29T08:32:56.560Z,3.73
2017-11-29T08:33:56.503Z,3.78
2017-11-29T08:34:56.468Z,3.70
2017-11-29T08:35:56.456Z,3.83
2017-11-29T08:36:56.520Z,3.83
2017-11-29T08:37:56.424Z,3.76
2017-11-29T08:38:56.471Z,3.79
2017-11-29T08:39:57.102Z,3.78
2017-11-29T08:40:56.362Z,3.78
2017-11-29T08:41:56.351Z,3.80
2017-11-29T08:42:56.330Z,3.76
2017-11-29T08:43:56.319Z,3.88
2017-11-29T08:44:56.365Z,3.86
2017-11-29T08:45:56.269Z,3.83
2017-11-29T08:46:56.284Z,3.80
2017-11-29T08:47:56.244Z,3.78
2017-11-29T08:48:56.226Z,3.72
2017-11-29T08:49:56.219Z,3.75
2017-11-29T08:50:56.330Z,3.75
2017-11-29T08:51:56.173Z,3.79
2017-11-29T08:52:56.159Z,3.76
2017-11-29T08:53:56.137Z,3.83
2017-11-29T08:54:56.114Z,3.86
2017-11-29T08:55:56.477Z,3.84
2017-11-29T08:56:56.411Z,3.83
2017-11-29T08:57:56.065Z,3.86
2017-11-29T08:58:56.060Z,3.86
2017-11-29T08:59:56.027Z,3.84
2017-11-29T09:00:56.006Z,3.80
2017-11-29T09:01:55.992Z,3.87
2017-11-29T09:02:56.007Z,3.80
2017-11-29T09:03:55.960Z,3.84
2017-11-29T09:04:55.939Z,3.83
2017-11-29T09:05:55.909Z,3.87
2017-11-29T09:06:55.894Z,3.97
2017-11-29T09:07:55.948Z,3.90
2017-11-29T09:08:55.860Z,3.78
2017-11-29T09:09:55.852Z,3.94
2017-11-29T09:10:55.835Z,3.93
2017-11-29T09:11:55.828Z,3.98
2017-11-29T09:12:55.795Z,3.87
2017-11-29T09:13:56.543Z,3.98
2017-11-29T09:14:55.768Z,3.93
2017-11-29T09:15:55.755Z,4.00
2017-11-29T09:16:55.722Z,3.91
2017-11-29T09:17:55.694Z,3.97
2017-11-29T09:18:55.714Z,3.96
2017-11-29T09:19:55.713Z,4.00
2017-11-29T09:20:55.655Z,3.93
2017-11-29T09:21:55.632Z,4.02
2017-11-29T09:22:55.619Z,4.00
2017-11-29T09:23:55.603Z,4.02
2017-11-29T09:24:55.595Z,4.04
2017-11-29T09:25:55.685Z,3.96
2017-11-29T09:26:55.544Z,3.87
2017-11-29T09:27:55.516Z,3.93
2017-11-29T09:28:55.507Z,4.00
2017-11-29T09:29:55.479Z,4.08
2017-11-29T09:30:55.458Z,3.94
2017-11-29T09:31:55.484Z,4.04
2017-11-29T09:32:55.433Z,4.00
2017-11-29T09:33:55.411Z,3.96
2017-11-29T09:34:55.401Z,4.08
2017-11-29T09:35:55.442Z,4.04
2017-11-29T09:36:55.364Z,4.11
2017-11-29T09:37:55.348Z,4.08
2017-11-29T09:38:55.328Z,4.08
2017-11-29T09:39:55.298Z,4.08
2017-11-29T09:40:55.283Z,4.06
2017-11-29T09:41:55.303Z,4.22
2017-11-29T09:42:55.258Z,4.14
2017-11-29T09:43:55.229Z,4.18
2017-11-29T09:44:55.281Z,4.11
2017-11-29T09:45:55.199Z,4.18
2017-11-29T09:46:55.186Z,4.20
2017-11-29T09:47:55.805Z,4.18
2017-11-29T09:48:55.148Z,4.23
2017-11-29T09:49:55.122Z,4.20
2017-11-29T09:50:55.166Z,4.26
2017-11-29T09:51:55.882Z,4.32
2017-11-29T09:52:55.065Z,4.22
2017-11-29T09:53:55.061Z,4.23
2017-11-29T09:54:55.034Z,4.29
2017-11-29T09:55:55.024Z,4.20
2017-11-29T09:56:55.036Z,4.26
2017-11-29T09:57:54.986Z,4.18
2017-11-29T09:58:54.959Z,4.27
2017-11-29T09:59:54.941Z,4.34
2017-11-29T10:00:54.935Z,4.27
2017-11-29T10:01:55.050Z,4.37
2017-11-29T10:02:54.897Z,4.36
2017-11-29T10:03:54.869Z,4.30
2017-11-29T10:04:54.872Z,4.34
2017-11-29T10:05:54.845Z,4.33
2017-11-29T10:06:55.010Z,4.42
2017-11-29T10:08:15.999Z,4.40
2017-11-29T10:08:54.788Z,4.41
2017-11-29T10:09:54.775Z,4.44
2017-11-29T10:10:54.761Z,4.41
2017-11-29T10:11:54.753Z,4.45
2017-11-29T10:12:54.722Z,4.42
2017-11-29T10:13:54.757Z,4.42
2017-11-29T10:14:54.677Z,4.34
2017-11-29T10:15:54.665Z,4.33
2017-11-29T10:16:54.650Z,4.40
2017-11-29T10:17:54.975Z,4.36
2017-11-29T10:18:55.096Z,4.34
2017-11-29T10:19:54.755Z,4.44
2017-11-29T10:20:54.587Z,4.47
2017-11-29T10:21:56.947Z,4.42
2017-11-29T10:22:54.546Z,4.50
2017-11-29T10:23:54.539Z,4.47
2017-11-29T10:24:54.498Z,4.42
2017-11-29T10:25:54.487Z,4.48
2017-11-29T10:26:54.464Z,4.50
2017-11-29T10:27:54.585Z,4.51
2017-11-29T10:28:54.437Z,4.48
2017-11-29T10:29:54.453Z,4.51
2017-11-29T10:30:54.445Z,4.44
2017-11-29T10:31:54.425Z,4.45
2017-11-29T10:32:54.413Z,4.51
2017-11-29T10:33:54.408Z,4.54
2017-11-29T10:34:54.317Z,4.45
2017-11-29T10:35:54.367Z,4.47
2017-11-29T10:36:54.284Z,4.50
2017-11-29T10:37:54.286Z,4.51
2017-11-29T10:38:54.262Z,4.55
2017-11-29T10:39:54.295Z,4.59
2017-11-29T10:40:54.281Z,4.55
2017-11-29T10:41:54.218Z,4.51
2017-11-29T10:42:54.189Z,4.60
2017-11-29T10:43:54.181Z,4.54
2017-11-29T10:44:54.150Z,4.66
2017-11-29T10:45:54.208Z,4.70
2017-11-29T10:46:54.127Z,4.60
2017-11-29T10:47:54.103Z,4.60
2017-11-29T10:48:54.102Z,4.67
2017-11-29T10:49:54.063Z,4.55
2017-11-29T10:50:54.805Z,4.65
2017-11-29T10:51:54.177Z,4.69
2017-11-29T10:52:54.014Z,4.72
2017-11-29T10:53:54.001Z,4.66
2017-11-29T10:54:53.987Z,4.59
2017-11-29T10:55:53.958Z,4.54
2017-11-29T10:56:53.955Z,4.54
2017-11-29T10:57:53.950Z,4.55
2017-11-29T10:58:53.940Z,4.66
2017-11-29T10:59:53.899Z,4.54
2017-11-29T11:00:53.881Z,4.54
2017-11-29T11:01:53.891Z,4.60
2017-11-29T11:02:53.852Z,4.59
2017-11-29T11:03:53.821Z,4.54
2017-11-29T11:04:53.812Z,4.58
2017-11-29T11:05:53.790Z,4.54
2017-11-29T11:06:53.800Z,4.62
2017-11-29T11:07:53.749Z,4.50
2017-11-29T11:08:53.788Z,4.73
2017-11-29T11:09:53.726Z,4.77
2017-11-29T11:10:53.707Z,4.67
2017-11-29T11:11:53.728Z,4.63
2017-11-29T11:12:53.668Z,4.69
2017-11-29T11:13:53.654Z,4.59
2017-11-29T11:14:53.637Z,4.72
2017-11-29T11:15:53.761Z,4.65
2017-11-29T11:16:53.598Z,4.65
2017-11-29T11:17:53.576Z,4.69
2017-11-29T11:18:53.557Z,4.75
2017-11-29T11:19:53.547Z,4.78
2017-11-29T11:20:53.542Z,4.70
2017-11-29T11:21:53.548Z,4.60
2017-11-29T11:22:53.501Z,4.55
2017-11-29T11:23:53.468Z,4.65
2017-11-29T11:24:53.469Z,4.60
2017-11-29T11:25:53.449Z,4.54
2017-11-29T11:26:53.490Z,4.67
2017-11-29T11:27:53.395Z,4.69
2017-11-29T11:28:53.389Z,4.73
2017-11-29T11:29:53.383Z,4.65
2017-11-29T11:30:53.500Z,4.65
2017-11-29T11:31:53.338Z,4.72
2017-11-29T11:32:53.342Z,4.58
2017-11-29T11:33:53.307Z,4.54
2017-11-29T11:34:53.295Z,4.59
2017-11-29T11:35:53.400Z,4.67
2017-11-29T11:36:53.258Z,4.77
2017-11-29T11:37:53.251Z,4.73
2017-11-29T11:38:53.269Z,4.58
2017-11-29T11:39:53.205Z,4.55
2017-11-29T11:40:53.183Z,4.73
2017-11-29T11:41:53.177Z,4.52
2017-11-29T11:42:53.152Z,4.63
2017-11-29T11:43:53.144Z,4.67
2017-11-29T11:44:53.181Z,4.70
2017-11-29T11:45:53.123Z,4.69
2017-11-29T11:46:53.078Z,4.72
2017-11-29T11:47:53.063Z,4.77
2017-11-29T11:48:53.051Z,4.73
2017-11-29T11:49:53.023Z,4.75
2017-11-29T11:50:53.033Z,4.78
2017-11-29T11:51:52.992Z,4.82
2017-11-29T11:52:52.967Z,4.73
2017-11-29T11:53:52.955Z,4.80
2017-11-29T11:54:52.929Z,4.77
2017-11-29T11:55:52.949Z,4.65
2017-11-29T11:56:52.905Z,4.62
2017-11-29T11:57:52.889Z,4.75
2017-11-29T11:58:52.864Z,4.75
2017-11-29T11:59:52.847Z,4.75
2017-11-29T12:00:52.863Z,4.78
2017-11-29T12:01:52.808Z,4.86
2017-11-29T12:02:52.783Z,4.85
2017-11-29T12:03:52.788Z,4.86
2017-11-29T12:04:52.763Z,4.88
2017-11-29T12:05:52.768Z,5.02
2017-11-29T12:06:52.730Z,5.00
2017-11-29T12:07:52.711Z,4.97
2017-11-29T12:08:52.731Z,5.06
2017-11-29T12:09:52.701Z,4.97
2017-11-29T12:10:53.860Z,5.07
2017-11-29T12:11:53.724Z,5.02
2017-11-29T12:12:52.620Z,4.96
2017-11-29T12:13:52.595Z,4.96
2017-11-29T12:14:52.592Z,4.92
2017-11-29T12:15:52.567Z,4.97
2017-11-29T12:16:52.590Z,4.97
2017-11-29T12:17:52.546Z,4.94
2017-11-29T12:18:52.511Z,4.92
2017-11-29T12:19:52.492Z,4.94
2017-11-29T12:20:52.515Z,5.03
2017-11-29T12:21:52.467Z,5.03
2017-11-29T12:22:52.456Z,5.06
2017-11-29T12:23:52.439Z,5.00
2017-11-29T12:24:52.425Z,4.94
2017-11-29T12:25:52.453Z,4.99
2017-11-29T12:26:52.377Z,4.94
2017-11-29T12:27:52.366Z,4.94
2017-11-29T12:28:52.364Z,4.86
2017-11-29T12:29:52.347Z,4.78
2017-11-29T12:30:52.319Z,4.89
2017-11-29T12:31:52.338Z,4.88
2017-11-29T12:32:52.287Z,4.92
2017-11-29T12:33:52.267Z,4.84
2017-11-29T12:34:52.247Z,4.96
2017-11-29T12:35:52.309Z,4.92
2017-11-29T12:36:52.226Z,4.96
2017-11-29T12:37:52.238Z,4.92
2017-11-29T12:38:52.178Z,4.86
2017-11-29T12:39:52.380Z,4.77
2017-11-29T12:40:52.133Z,4.86
2017-11-29T12:41:52.172Z,4.82
2017-11-29T12:42:52.121Z,4.88
2017-11-29T12:43:52.325Z,4.66
2017-11-29T12:44:52.103Z,4.88
2017-11-29T12:45:52.119Z,4.70
2017-11-29T12:46:53.125Z,4.84
2017-11-29T12:47:52.015Z,4.75
2017-11-29T12:48:52.012Z,4.80
2017-11-29T12:49:51.984Z,4.72
2017-11-29T12:50:51.977Z,4.85
2017-11-29T12:51:52.125Z,4.84
2017-11-29T12:52:51.932Z,4.82
2017-11-29T12:53:51.938Z,4.78
2017-11-29T12:54:51.909Z,4.84
2017-11-29T12:55:51.890Z,4.88
2017-11-29T12:56:51.860Z,4.77
2017-11-29T12:57:51.976Z,4.75
2017-11-29T12:58:51.827Z,4.82
2017-11-29T12:59:51.825Z,4.77
2017-11-29T13:00:51.792Z,4.75
2017-11-29T13:01:51.800Z,4.78
2017-11-29T13:02:51.769Z,4.73
2017-11-29T13:03:51.777Z,4.66
2017-11-29T13:04:51.756Z,4.66
2017-11-29T13:05:51.717Z,4.78
2017-11-29T13:06:51.692Z,4.65
2017-11-29T13:07:51.681Z,4.60
2017-11-29T13:08:51.721Z,4.54
2017-11-29T13:09:51.650Z,4.73
2017-11-29T13:10:51.628Z,4.63
2017-11-29T13:11:51.610Z,4.51
2017-11-29T13:12:51.574Z,4.55
2017-11-29T13:13:51.575Z,4.55
2017-11-29T13:14:51.585Z,4.60
2017-11-29T13:15:51.537Z,4.52
2017-11-29T13:16:51.568Z,4.63
2017-11-29T13:17:51.487Z,4.62